Time;durP1;ratioP1;P1;durP2;ratioP2;P2;SDS_P1;SDS_P2;PMS_P1;PMS_P2;Temp;Humidity;BMP_temperature;BMP_pressure;BME280_temperature;BME280_humidity;BME280_pressure;Samples;Min_cycle;Max_cycle;Signal;HPM_P1;HPM_P2
2023/03/21 00:01:51;;;;;;;9.80;6.00;;;;;9.90;101156.00;;;;9679310;30;20208;-79
2023/03/21 00:06:53;;;;;;;14.33;5.73;;;;;9.80;101146.00;;;;9655785;30;20274;-79
2023/03/21 00:11:55;;;;;;;18.10;6.23;;;;;9.70;101146.00;;;;9672888;30;20199;-79
2023/03/21 00:16:57;;;;;;;12.67;6.10;;;;;9.70;101128.00;;;;9651073;30;20220;-78
2023/03/21 00:22:01;;;;;;;11.33;6.33;;;;;9.60;101120.00;;;;9656229;30;20208;-78
2023/03/21 00:27:09;;;;;;;13.50;7.00;;;;;9.60;101115.00;;;;9674389;30;20207;-79
2023/03/21 00:32:31;;;;;;;16.67;6.53;;;;;9.60;101112.00;;;;9647918;30;20231;-77
2023/03/21 00:37:40;;;;;;;15.27;7.57;;;;;9.60;101105.00;;;;9672541;30;20204;-77
2023/03/21 00:42:44;;;;;;;20.50;7.10;;;;;9.60;101100.00;;;;9672705;30;20978;-78
2023/03/21 00:47:47;;;;;;;14.43;6.90;;;;;9.60;101105.00;;;;9648988;30;20227;-79
2023/03/21 00:52:50;;;;;;;11.33;6.17;;;;;9.60;101096.00;;;;9665468;30;20230;-78
2023/03/21 00:57:52;;;;;;;13.37;6.17;;;;;9.60;101087.00;;;;9631217;30;20290;-79
2023/03/21 01:03:06;;;;;;;12.60;5.60;;;;;9.70;101075.00;;;;9641239;30;20208;-79
2023/03/21 01:08:26;;;;;;;12.97;5.80;;;;;9.70;101075.00;;;;9685176;30;20243;-77
2023/03/21 01:13:44;;;;;;;10.07;6.70;;;;;9.70;101070.00;;;;9669438;30;20708;-78
2023/03/21 01:18:58;;;;;;;10.37;5.80;;;;;9.70;101061.00;;;;9647566;30;20208;-78
2023/03/21 01:24:01;;;;;;;12.63;6.10;;;;;9.70;101045.00;;;;9634982;30;20231;-77
2023/03/21 01:29:04;;;;;;;12.37;5.97;;;;;9.70;101037.00;;;;9671845;30;20243;-78
2023/03/21 01:34:06;;;;;;;14.13;6.67;;;;;9.70;101039.00;;;;9676557;30;20249;-78
2023/03/21 01:39:09;;;;;;;11.37;5.80;;;;;9.70;101030.00;;;;9671744;30;20208;-78
2023/03/21 01:44:16;;;;;;;13.03;6.33;;;;;9.70;101031.00;;;;9657385;30;20207;-78
2023/03/21 01:49:44;;;;;;;9.40;5.47;;;;;9.70;101027.00;;;;9681117;30;20219;-79
2023/03/21 01:55:03;;;;;;;14.20;6.07;;;;;9.70;101025.00;;;;9655973;30;20215;-78
2023/03/21 02:00:14;;;;;;;11.70;5.83;;;;;9.70;101017.00;;;;9655948;30;20207;-78
2023/03/21 02:05:43;;;;;;;12.07;5.43;;;;;9.70;101012.00;;;;9656642;30;20202;-79
2023/03/21 02:10:48;;;;;;;12.63;5.83;;;;;9.80;101001.00;;;;9646252;30;20238;-79
2023/03/21 02:16:16;;;;;;;13.27;6.07;;;;;9.80;100993.00;;;;9652485;30;20219;-79
2023/03/21 02:21:51;;;;;;;13.93;5.77;;;;;9.80;100983.00;;;;9630867;30;20270;-79
2023/03/21 02:27:03;;;;;;;12.77;5.23;;;;;9.80;100988.00;;;;9653671;30;20224;-77
2023/03/21 02:32:40;;;;;;;11.97;5.23;;;;;9.90;100975.00;;;;9672209;30;20274;-79
2023/03/21 02:37:53;;;;;;;11.47;5.37;;;;;9.90;100979.00;;;;9658256;30;20216;-79
2023/03/21 02:43:11;;;;;;;14.87;5.60;;;;;9.90;100977.00;;;;9671884;30;20210;-79
2023/03/21 02:48:31;;;;;;;10.80;4.93;;;;;10.00;100969.00;;;;9641890;30;20226;-78
2023/03/21 02:53:57;;;;;;;12.97;5.60;;;;;10.00;100957.00;;;;9658111;30;20263;-77
2023/03/21 02:59:22;;;;;;;14.70;6.00;;;;;10.00;100946.00;;;;9660512;30;20200;-79
2023/03/21 03:04:27;;;;;;;13.03;4.77;;;;;10.10;100949.00;;;;9671538;30;20234;-79
2023/03/21 03:10:02;;;;;;;11.37;5.27;;;;;10.10;100951.00;;;;9686993;30;20215;-79
2023/03/21 03:15:20;;;;;;;11.83;5.60;;;;;10.00;100941.00;;;;9691675;30;20207;-77
2023/03/21 03:20:47;;;;;;;10.93;5.50;;;;;9.90;100939.00;;;;9657208;30;20231;-77
2023/03/21 03:25:54;;;;;;;8.23;4.60;;;;;9.90;100944.00;;;;9656968;30;20215;-79
2023/03/21 03:30:59;;;;;;;8.33;4.80;;;;;9.90;100944.00;;;;9663992;30;20258;-79
2023/03/21 03:36:17;;;;;;;10.57;3.43;;;;;9.90;100940.00;;;;9676645;30;20240;-78
2023/03/21 03:42:17;;;;;;;9.70;4.10;;;;;9.90;100942.00;;;;9664949;30;20665;-79
2023/03/21 03:48:06;;;;;;;11.27;3.90;;;;;9.90;100934.00;;;;9657362;30;20233;-77
2023/03/21 03:53:20;;;;;;;9.60;3.70;;;;;10.00;100925.00;;;;9644286;30;20263;-79
2023/03/21 03:58:26;;;;;;;10.73;3.50;;;;;10.10;100919.00;;;;9638424;30;20211;-79
2023/03/21 04:03:48;;;;;;;10.00;3.87;;;;;10.10;100915.00;;;;9682232;30;20207;-79
2023/03/21 04:09:00;;;;;;;7.90;4.33;;;;;10.20;100923.00;;;;9681275;30;20226;-78
2023/03/21 04:14:06;;;;;;;14.10;4.33;;;;;10.20;100912.00;;;;9683979;30;20234;-78
2023/03/21 04:19:10;;;;;;;11.40;4.27;;;;;10.30;100912.00;;;;9648894;30;20216;-79
2023/03/21 04:24:12;;;;;;;13.63;4.30;;;;;10.40;100915.00;;;;9642613;30;20220;-78
2023/03/21 04:29:19;;;;;;;8.23;3.93;;;;;10.40;100909.00;;;;9648029;30;20223;-78
2023/03/21 04:34:39;;;;;;;9.63;4.43;;;;;10.40;100911.00;;;;9669043;30;20582;-79
2023/03/21 04:39:41;;;;;;;11.13;4.70;;;;;10.40;100908.00;;;;9667953;30;20223;-78
2023/03/21 04:44:45;;;;;;;12.60;4.90;;;;;10.40;100901.00;;;;9666960;30;20207;-79
2023/03/21 04:49:48;;;;;;;9.77;5.17;;;;;10.40;100895.00;;;;9663358;30;20231;-78
2023/03/21 04:54:50;;;;;;;15.80;5.30;;;;;10.40;100896.00;;;;9664865;30;20204;-78
2023/03/21 04:59:53;;;;;;;13.63;5.67;;;;;10.40;100893.00;;;;9666152;30;20200;-77
2023/03/21 05:04:56;;;;;;;14.67;6.23;;;;;10.40;100893.00;;;;9652125;30;20208;-79
2023/03/21 05:09:58;;;;;;;17.97;6.43;;;;;10.40;100890.00;;;;9663104;30;20220;-79
2023/03/21 05:15:05;;;;;;;8.73;5.00;;;;;10.40;100895.00;;;;9633448;30;20843;-79
2023/03/21 05:20:10;;;;;;;16.70;6.80;;;;;10.40;100896.00;;;;9641863;30;20216;-79
2023/03/21 05:25:12;;;;;;;12.57;6.43;;;;;10.40;100892.00;;;;9668941;30;20207;-78
2023/03/21 05:30:32;;;;;;;12.83;5.80;;;;;10.40;100902.00;;;;9656100;30;20235;-79
2023/03/21 05:35:36;;;;;;;16.30;6.80;;;;;10.40;100884.00;;;;9683472;30;20231;-79
2023/03/21 05:40:49;;;;;;;15.37;6.20;;;;;10.50;100885.00;;;;9647066;30;20703;-79
2023/03/21 05:45:52;;;;;;;12.60;6.90;;;;;10.50;100886.00;;;;9683437;30;20237;-79
2023/03/21 05:50:55;;;;;;;14.50;6.37;;;;;10.50;100889.00;;;;9674715;30;20224;-79
2023/03/21 05:55:58;;;;;;;12.90;6.37;;;;;10.50;100886.00;;;;9687860;30;20216;-79
2023/03/21 06:01:14;;;;;;;11.70;6.20;;;;;10.50;100882.00;;;;9650545;30;20830;-79
2023/03/21 06:06:23;;;;;;;10.87;5.83;;;;;10.50;100898.00;;;;9673810;30;20711;-79
2023/03/21 06:11:36;;;;;;;13.47;6.53;;;;;10.40;100898.00;;;;9655019;30;20212;-77
2023/03/21 06:17:02;;;;;;;15.37;6.70;;;;;10.10;100901.00;;;;9618728;30;20212;-75
2023/03/21 06:22:06;;;;;;;16.80;6.53;;;;;9.90;100913.00;;;;9662741;30;20219;-76
2023/03/21 06:27:11;;;;;;;15.73;7.60;;;;;9.80;100906.00;;;;9662432;30;20208;-76
2023/03/21 06:32:26;;;;;;;19.40;7.80;;;;;9.80;100901.00;;;;9670878;30;20211;-76
2023/03/21 06:37:32;;;;;;;12.80;6.33;;;;;9.70;100896.00;;;;9668424;30;20232;-76
2023/03/21 06:42:35;;;;;;;13.97;7.20;;;;;9.70;100890.00;;;;9663456;30;20207;-76
2023/03/21 06:47:43;;;;;;;20.03;6.67;;;;;9.80;100890.00;;;;9658820;30;20227;-77
2023/03/21 06:52:59;;;;;;;13.93;6.60;;;;;9.80;100891.00;;;;9650068;30;20624;-77
2023/03/21 06:58:05;;;;;;;14.10;6.07;;;;;9.80;100888.00;;;;9617318;30;20207;-76
2023/03/21 07:03:08;;;;;;;10.53;5.67;;;;;9.70;100880.00;;;;9656691;30;20227;-76
2023/03/21 07:08:11;;;;;;;14.03;5.80;;;;;9.80;100883.00;;;;9656798;30;20348;-76
2023/03/21 07:13:14;;;;;;;12.00;5.27;;;;;9.90;100875.00;;;;9668645;30;20270;-77
2023/03/21 07:18:29;;;;;;;8.37;5.33;;;;;10.10;100874.00;;;;9651550;30;20199;-78
2023/03/21 07:23:31;;;;;;;10.83;5.40;;;;;10.20;100876.00;;;;9652078;30;20200;-77
2023/03/21 07:28:34;;;;;;;15.27;5.70;;;;;10.20;100873.00;;;;9651782;30;20282;-77
2023/03/21 07:33:36;;;;;;;11.43;5.37;;;;;10.30;100864.00;;;;9629715;30;20240;-77
2023/03/21 07:38:38;;;;;;;10.80;5.40;;;;;10.60;100855.00;;;;9628971;30;20294;-77
2023/03/21 07:43:40;;;;;;;10.40;4.90;;;;;11.00;100850.00;;;;9661782;30;20277;-78
2023/03/21 07:48:45;;;;;;;12.50;4.73;;;;;11.40;100852.00;;;;9661964;30;20216;-78
2023/03/21 07:53:48;;;;;;;8.73;4.10;;;;;11.50;100852.00;;;;9674897;30;20207;-78
2023/03/21 07:58:50;;;;;;;7.77;3.07;;;;;11.40;100850.00;;;;9650654;30;20242;-78
2023/03/21 08:03:52;;;;;;;5.17;3.03;;;;;11.30;100847.00;;;;9655706;30;20206;-78
2023/03/21 08:08:54;;;;;;;7.23;3.03;;;;;11.20;100845.00;;;;9653558;30;20308;-77
2023/03/21 08:13:58;;;;;;;6.17;2.90;;;;;11.10;100835.00;;;;9657011;30;20211;-77
2023/03/21 08:19:01;;;;;;;9.60;3.23;;;;;11.10;100833.00;;;;9654026;30;20210;-78
2023/03/21 08:24:03;;;;;;;10.07;3.50;;;;;11.10;100828.00;;;;9653410;30;20222;-78
2023/03/21 08:29:05;;;;;;;6.43;3.37;;;;;11.30;100827.00;;;;9664612;30;20222;-78
2023/03/21 08:34:08;;;;;;;10.10;3.73;;;;;11.40;100831.00;;;;9638945;30;20222;-78
2023/03/21 08:39:10;;;;;;;9.63;3.60;;;;;11.70;100823.00;;;;9667561;30;20904;-77
2023/03/21 08:44:12;;;;;;;8.20;3.57;;;;;11.80;100821.00;;;;9642994;30;20230;-77
2023/03/21 08:49:15;;;;;;;6.93;3.70;;;;;11.90;100810.00;;;;9653919;30;20219;-78
2023/03/21 08:54:21;;;;;;;10.67;3.77;;;;;11.90;100804.00;;;;9642505;30;20242;-78
2023/03/21 08:59:24;;;;;;;6.90;4.07;;;;;12.10;100802.00;;;;9662260;30;20234;-79
2023/03/21 09:04:26;;;;;;;8.67;3.87;;;;;12.60;100802.00;;;;9637738;30;20684;-79
2023/03/21 09:09:29;;;;;;;9.80;3.73;;;;;13.10;100788.00;;;;9644130;30;20211;-79
2023/03/21 09:14:32;;;;;;;11.00;4.23;;;;;13.60;100795.00;;;;9664054;30;20204;-78
2023/03/21 09:19:34;;;;;;;7.07;4.03;;;;;13.80;100784.00;;;;9659896;30;20199;-77
2023/03/21 09:24:36;;;;;;;10.80;3.57;;;;;13.50;100790.00;;;;9684287;30;20203;-78
2023/03/21 09:29:42;;;;;;;10.50;3.63;;;;;13.20;100794.00;;;;9668955;30;20259;-77
2023/03/21 09:34:44;;;;;;;8.40;3.47;;;;;12.80;100790.00;;;;9670897;30;20243;-78
2023/03/21 09:39:49;;;;;;;8.47;3.33;;;;;12.60;100794.00;;;;9667318;30;20208;-76
2023/03/21 09:45:01;;;;;;;9.83;3.43;;;;;12.90;100802.00;;;;9655706;30;20742;-78
2023/03/21 09:50:32;;;;;;;10.00;3.80;;;;;13.40;100806.00;;;;9668950;30;20216;-78
2023/03/21 09:55:38;;;;;;;5.47;3.40;;;;;13.90;100813.00;;;;9640146;30;20208;-79
2023/03/21 10:00:46;;;;;;;6.73;3.00;;;;;14.30;100797.00;;;;9662395;30;20757;-78
2023/03/21 10:05:51;;;;;;;7.40;3.40;;;;;14.60;100788.00;;;;9633607;30;20983;-78
2023/03/21 10:11:00;;;;;;;6.80;3.57;;;;;14.60;100786.00;;;;9654164;30;20219;-79
2023/03/21 10:16:20;;;;;;;7.47;3.57;;;;;14.50;100778.00;;;;9658593;30;20692;-79
2023/03/21 10:21:25;;;;;;;10.70;3.40;;;;;14.70;100769.00;;;;9665359;30;20200;-78
2023/03/21 10:26:50;;;;;;;9.20;3.33;;;;;14.80;100757.00;;;;9653276;30;20212;-78
2023/03/21 10:31:53;;;;;;;5.93;2.67;;;;;14.90;100753.00;;;;9643356;30;20294;-78
2023/03/21 10:36:56;;;;;;;5.82;3.08;;;;;15.10;100729.00;;;;9664417;30;20208;-78
2023/03/21 10:42:00;;;;;;;5.72;2.95;;;;;15.50;100764.00;;;;9656427;30;20208;-79
2023/03/21 10:47:07;;;;;;;8.23;2.92;;;;;16.00;100764.00;;;;9637964;30;20203;-79
2023/03/21 10:52:12;;;;;;;3.95;2.53;;;;;16.50;100769.00;;;;9666370;30;20215;-78
2023/03/21 10:57:20;;;;;;;8.70;3.30;;;;;16.70;100770.00;;;;9663807;30;20192;-79
2023/03/21 11:02:31;;;;;;;6.35;3.13;;;;;17.30;100772.00;;;;9660275;30;20215;-79
2023/03/21 11:07:36;;;;;;;8.77;3.50;;;;;18.30;100781.00;;;;9646837;30;20215;-80
2023/03/21 11:12:45;;;;;;;7.53;3.40;;;;;18.40;100772.00;;;;9633079;30;20235;-80
2023/03/21 11:17:47;;;;;;;5.72;3.22;;;;;18.30;100770.00;;;;9662173;30;20290;-80
2023/03/21 11:22:53;;;;;;;4.97;3.42;;;;;18.70;100753.00;;;;9671378;30;20680;-80
2023/03/21 11:27:55;;;;;;;3.30;3.00;;;;;18.90;100757.00;;;;9657153;30;20226;-80
2023/03/21 11:33:05;;;;;;;5.18;3.45;;;;;19.10;100762.00;;;;9666696;30;20300;-81
2023/03/21 11:38:24;;;;;;;9.98;4.47;;;;;18.40;100770.00;;;;9645378;30;20223;-80
2023/03/21 11:43:35;;;;;;;7.90;3.90;;;;;17.30;100753.00;;;;9694164;30;20211;-80
2023/03/21 11:48:43;;;;;;;9.18;4.05;;;;;17.30;100740.00;;;;9650503;30;20230;-80
2023/03/21 11:53:56;;;;;;;6.50;3.88;;;;;17.50;100738.00;;;;9668244;30;20203;-80
2023/03/21 11:59:17;;;;;;;5.45;3.17;;;;;18.90;100731.00;;;;9660293;30;20199;-80
2023/03/21 12:04:44;;;;;;;7.72;3.47;;;;;20.40;100720.00;;;;9634439;30;20208;-80
2023/03/21 12:09:54;;;;;;;8.38;3.85;;;;;20.50;100717.00;;;;9650961;30;20270;-80
2023/03/21 12:15:04;;;;;;;6.00;3.50;;;;;20.70;100723.00;;;;9671772;30;20235;-80
2023/03/21 12:20:28;;;;;;;5.97;2.92;;;;;20.50;100710.00;;;;9640838;30;20239;-82
2023/03/21 12:25:37;;;;;;;6.32;3.03;;;;;19.80;100716.00;;;;9667488;30;20208;-80
2023/03/21 12:30:49;;;;;;;7.30;2.95;;;;;18.40;100732.00;;;;9691498;30;20687;-80
2023/03/21 12:36:10;;;;;;;6.22;3.00;;;;;17.70;100728.00;;;;9625159;30;20230;-80
2023/03/21 12:41:18;;;;;;;5.93;2.92;;;;;18.30;100711.00;;;;9630960;30;20496;-81
2023/03/21 12:46:44;;;;;;;9.35;3.63;;;;;18.60;100698.00;;;;9644155;30;20203;-80
2023/03/21 12:51:50;;;;;;;6.93;3.20;;;;;18.40;100691.00;;;;9627068;30;20254;-81
2023/03/21 12:57:16;;;;;;;6.63;3.22;;;;;18.10;100692.00;;;;9627532;30;20214;-81
2023/03/21 13:02:41;;;;;;;5.57;3.88;;;;;18.70;100680.00;;;;9629590;30;20219;-80
2023/03/21 13:07:47;;;;;;;4.85;3.08;;;;;18.80;100679.00;;;;9652722;30;20216;-80
2023/03/21 13:12:59;;;;;;;7.60;3.72;;;;;19.20;100671.00;;;;9654634;30;20278;-81
2023/03/21 13:18:15;;;;;;;6.57;3.67;;;;;19.20;100662.00;;;;9651443;30;20207;-81
2023/03/21 13:23:23;;;;;;;6.10;3.20;;;;;18.80;100661.00;;;;9665718;30;20190;-81
2023/03/21 13:28:28;;;;;;;3.75;2.97;;;;;18.60;100655.00;;;;9652717;30;20310;-81
2023/03/21 13:33:33;;;;;;;5.50;3.33;;;;;19.20;100666.00;;;;9657395;30;20975;-80
2023/03/21 13:38:39;;;;;;;5.95;3.83;;;;;18.70;100650.00;;;;9679341;30;20230;-80
2023/03/21 13:44:01;;;;;;;8.43;3.42;;;;;19.20;100653.00;;;;9629695;30;20216;-80
2023/03/21 13:49:09;;;;;;;4.88;2.60;;;;;19.70;100651.00;;;;9629632;30;20965;-81
2023/03/21 13:54:15;;;;;;;6.10;3.08;;;;;18.90;100644.00;;;;9675855;30;20235;-79
2023/03/21 13:59:43;;;;;;;6.50;2.70;;;;;19.10;100635.00;;;;9651120;30;20246;-80
2023/03/21 14:04:54;;;;;;;6.18;2.70;;;;;19.40;100634.00;;;;9684854;30;20228;-80
2023/03/21 14:10:35;;;;;;;5.60;2.67;;;;;21.60;100625.00;;;;9666442;30;20268;-80
2023/03/21 14:15:50;;;;;;;5.65;2.75;;;;;19.50;100630.00;;;;9662067;30;20734;-79
2023/03/21 14:20:58;;;;;;;4.00;2.55;;;;;18.10;100627.00;;;;9658270;30;20665;-79
2023/03/21 14:26:01;;;;;;;7.32;2.90;;;;;17.80;100630.00;;;;9687601;30;20199;-80
2023/03/21 14:31:03;;;;;;;5.50;2.83;;;;;17.80;100634.00;;;;9684512;30;20212;-80
2023/03/21 14:36:12;;;;;;;8.60;3.88;;;;;17.00;100645.00;;;;9668517;30;20222;-80
2023/03/21 14:41:26;;;;;;;5.72;4.15;;;;;16.50;100646.00;;;;9658820;30;20350;-79
2023/03/21 14:46:28;;;;;;;5.65;4.25;;;;;16.60;100641.00;;;;9686176;30;20208;-79
2023/03/21 14:51:30;;;;;;;5.07;3.78;;;;;16.90;100650.00;;;;9662423;30;20204;-79
2023/03/21 14:56:35;;;;;;;5.72;3.67;;;;;16.40;100650.00;;;;9669770;30;20208;-79
2023/03/21 15:01:38;;;;;;;5.80;3.72;;;;;16.10;100644.00;;;;9664665;30;20302;-79
2023/03/21 15:06:52;;;;;;;6.05;3.83;;;;;16.20;100649.00;;;;9645852;30;20858;-79
2023/03/21 15:11:55;;;;;;;8.27;3.80;;;;;16.70;100642.00;;;;9644987;30;20232;-79
2023/03/21 15:17:00;;;;;;;6.03;3.22;;;;;16.90;100636.00;;;;9661725;30;20260;-80
2023/03/21 15:22:15;;;;;;;7.20;3.05;;;;;16.50;100639.00;;;;9661378;30;20230;-81
2023/03/21 15:27:22;;;;;;;5.88;3.25;;;;;15.90;100638.00;;;;9676886;30;20783;-78
2023/03/21 15:32:27;;;;;;;3.92;3.53;;;;;15.70;100622.00;;;;9651396;30;20249;-79
2023/03/21 15:37:35;;;;;;;5.50;4.00;;;;;15.60;100619.00;;;;9666775;30;20246;-80
2023/03/21 15:42:41;;;;;;;7.05;4.32;;;;;15.50;100630.00;;;;9642943;30;20234;-79
2023/03/21 15:48:02;;;;;;;4.38;3.83;;;;;15.10;100634.00;;;;9674747;30;20700;-79
2023/03/21 15:53:07;;;;;;;4.45;3.83;;;;;14.70;100636.00;;;;9666337;30;20292;-79
2023/03/21 15:58:19;;;;;;;6.43;3.47;;;;;14.50;100651.00;;;;9693955;30;20664;-79
2023/03/21 16:03:26;;;;;;;4.20;3.78;;;;;14.10;100654.00;;;;9649840;30;20216;-78
2023/03/21 16:08:34;;;;;;;8.50;4.38;;;;;13.70;100680.00;;;;9655638;30;21702;-80
2023/03/21 16:13:36;;;;;;;5.70;4.43;;;;;13.50;100681.00;;;;9664313;30;20211;-78
2023/03/21 16:18:38;;;;;;;7.33;4.97;;;;;13.70;100674.00;;;;9714848;30;20204;-80
2023/03/21 16:23:40;;;;;;;6.33;4.77;;;;;13.70;100682.00;;;;9644987;30;20254;-79
2023/03/21 16:28:44;;;;;;;5.90;5.00;;;;;13.60;100678.00;;;;9661329;30;20759;-79
2023/03/21 16:33:47;;;;;;;11.00;5.67;;;;;13.60;100675.00;;;;9666514;30;20230;-80
2023/03/21 16:38:53;;;;;;;7.63;5.30;;;;;13.70;100654.00;;;;9665038;30;20258;-80
2023/03/21 16:43:55;;;;;;;6.63;5.40;;;;;13.90;100654.00;;;;9656919;30;20271;-79
2023/03/21 16:48:58;;;;;;;8.83;5.30;;;;;14.00;100658.00;;;;9666505;30;20216;-81
2023/03/21 16:54:01;;;;;;;10.67;5.50;;;;;14.10;100660.00;;;;9630861;30;20227;-81
2023/03/21 16:59:04;;;;;;;8.20;5.57;;;;;14.20;100657.00;;;;9666720;30;20649;-81
2023/03/21 17:04:07;;;;;;;7.53;5.00;;;;;13.70;100656.00;;;;9668615;30;20254;-80
2023/03/21 17:09:11;;;;;;;8.93;5.73;;;;;13.40;100674.00;;;;9652736;30;20254;-81
2023/03/21 17:14:20;;;;;;;6.90;5.63;;;;;13.10;100674.00;;;;9666822;30;20212;-81
2023/03/21 17:19:25;;;;;;;11.00;5.47;;;;;13.00;100656.00;;;;9680743;30;20264;-80
2023/03/21 17:24:27;;;;;;;7.50;5.17;;;;;13.10;100665.00;;;;9665950;30;20203;-81
2023/03/21 17:29:29;;;;;;;10.30;6.53;;;;;13.10;100660.00;;;;9648678;30;20295;-81
2023/03/21 17:34:32;;;;;;;12.80;6.47;;;;;12.90;100658.00;;;;9651346;30;20239;-81
2023/03/21 17:39:34;;;;;;;10.90;6.47;;;;;12.80;100660.00;;;;9666676;30;20215;-81
2023/03/21 17:44:36;;;;;;;10.60;7.57;;;;;12.70;100662.00;;;;9651163;30;20216;-81
2023/03/21 17:49:39;;;;;;;14.67;8.60;;;;;12.60;100653.00;;;;9642078;30;20228;-81
2023/03/21 17:54:41;;;;;;;14.83;9.07;;;;;12.50;100655.00;;;;9658871;30;20222;-79
2023/03/21 17:59:43;;;;;;;14.87;9.70;;;;;12.50;100656.00;;;;9673216;30;20763;-81
2023/03/21 18:04:45;;;;;;;19.07;11.07;;;;;12.40;100646.00;;;;9659018;30;20211;-81
2023/03/21 18:09:48;;;;;;;19.73;10.70;;;;;12.40;100650.00;;;;9658284;30;20252;-80
2023/03/21 18:14:50;;;;;;;19.93;10.17;;;;;12.30;100646.00;;;;9658009;30;20216;-81
2023/03/21 18:19:52;;;;;;;13.47;8.63;;;;;12.30;100630.00;;;;9672497;30;20788;-81
2023/03/21 18:24:56;;;;;;;10.27;6.87;;;;;12.30;100634.00;;;;9671637;30;20203;-80
2023/03/21 18:29:58;;;;;;;10.97;7.00;;;;;12.30;100629.00;;;;9657902;30;20228;-80
2023/03/21 18:35:21;;;;;;;9.27;5.60;;;;;12.20;100634.00;;;;9695047;30;20219;-81
2023/03/21 18:40:23;;;;;;;7.87;4.70;;;;;12.30;100636.00;;;;9685408;30;20253;-79
2023/03/21 18:45:26;;;;;;;7.93;5.30;;;;;12.30;100643.00;;;;9632960;30;20224;-80
2023/03/21 18:50:28;;;;;;;8.70;5.23;;;;;12.30;100638.00;;;;9654637;30;20235;-79
2023/03/21 18:55:30;;;;;;;7.27;4.70;;;;;12.30;100639.00;;;;9698986;30;20235;-81
2023/03/21 19:00:50;;;;;;;6.53;5.03;;;;;12.20;100645.00;;;;9641639;30;20223;-79
2023/03/21 19:05:57;;;;;;;8.00;4.97;;;;;12.20;100645.00;;;;9670595;30;20260;-80
2023/03/21 19:10:59;;;;;;;6.50;4.90;;;;;12.20;100649.00;;;;9655539;30;20319;-78
2023/03/21 19:16:07;;;;;;;4.90;4.37;;;;;12.20;100642.00;;;;9636138;30;20216;-79
2023/03/21 19:21:12;;;;;;;7.17;5.30;;;;;12.20;100659.00;;;;9652181;30;20243;-78
2023/03/21 19:26:14;;;;;;;5.73;4.83;;;;;12.20;100657.00;;;;9643019;30;20255;-78
2023/03/21 19:31:17;;;;;;;9.17;5.00;;;;;12.30;100658.00;;;;9643125;30;20205;-78
2023/03/21 19:36:20;;;;;;;10.43;6.17;;;;;12.30;100645.00;;;;9669439;30;20704;-79
2023/03/21 19:41:24;;;;;;;7.83;5.43;;;;;12.30;100655.00;;;;9642126;30;20255;-79
2023/03/21 19:46:26;;;;;;;10.90;5.80;;;;;12.30;100649.00;;;;9673866;30;20259;-79
2023/03/21 19:51:29;;;;;;;9.80;5.97;;;;;12.30;100645.00;;;;9647323;30;20208;-79
2023/03/21 19:56:32;;;;;;;8.50;5.50;;;;;12.30;100636.00;;;;9641584;30;20732;-79
2023/03/21 20:01:36;;;;;;;10.30;5.93;;;;;12.30;100637.00;;;;9658557;30;20661;-79
2023/03/21 20:06:38;;;;;;;9.50;5.53;;;;;12.30;100631.00;;;;9655519;30;20204;-79
2023/03/21 20:11:40;;;;;;;7.80;4.40;;;;;12.40;100635.00;;;;9649390;30;20270;-78
2023/03/21 20:16:42;;;;;;;6.17;3.83;;;;;12.40;100638.00;;;;9632025;30;20239;-79
2023/03/21 20:21:44;;;;;;;8.50;3.07;;;;;12.50;100640.00;;;;9644489;30;20212;-79
2023/03/21 20:26:57;;;;;;;8.37;3.00;;;;;12.50;100632.00;;;;9632755;30;20196;-79
2023/03/21 20:32:00;;;;;;;3.67;1.73;;;;;12.40;100627.00;;;;9636441;30;20220;-79
2023/03/21 20:37:03;;;;;;;7.07;1.93;;;;;12.40;100644.00;;;;9635750;30;20239;-79
2023/03/21 20:42:07;;;;;;;6.23;2.00;;;;;12.30;100636.00;;;;9655158;30;20669;-79
2023/03/21 20:47:10;;;;;;;7.93;1.80;;;;;12.20;100640.00;;;;9627208;30;20212;-79
2023/03/21 20:52:12;;;;;;;7.47;1.73;;;;;12.00;100641.00;;;;9655534;30;20299;-79
2023/03/21 20:57:34;;;;;;;5.80;2.00;;;;;11.80;100641.00;;;;9654052;30;20290;-79
2023/03/21 21:02:44;;;;;;;5.83;2.40;;;;;11.70;100635.00;;;;9659759;30;20211;-79
2023/03/21 21:07:47;;;;;;;8.57;2.00;;;;;11.60;100628.00;;;;9666076;30;20271;-79
2023/03/21 21:12:50;;;;;;;7.87;2.50;;;;;11.50;100631.00;;;;9643943;30;20232;-79
2023/03/21 21:17:55;;;;;;;6.90;1.93;;;;;11.40;100621.00;;;;9643932;30;20208;-80
2023/03/21 21:23:08;;;;;;;7.93;2.37;;;;;11.20;100614.00;;;;9644271;30;20215;-81
2023/03/21 21:28:10;;;;;;;8.23;2.30;;;;;11.10;100613.00;;;;9665823;30;20235;-79
2023/03/21 21:33:20;;;;;;;10.50;2.57;;;;;11.00;100619.00;;;;9659899;30;20228;-79
2023/03/21 21:38:23;;;;;;;8.43;2.93;;;;;10.90;100607.00;;;;9662143;30;20270;-78
2023/03/21 21:43:25;;;;;;;11.10;3.43;;;;;11.00;100597.00;;;;9652082;30;20276;-77
2023/03/21 21:48:27;;;;;;;9.00;4.10;;;;;11.00;100592.00;;;;9649786;30;20231;-79
2023/03/21 21:53:32;;;;;;;10.47;4.63;;;;;11.10;100595.00;;;;9652312;30;20216;-77
2023/03/21 21:58:37;;;;;;;9.60;4.37;;;;;11.00;100581.00;;;;9686870;30;20207;-77
2023/03/21 22:03:44;;;;;;;7.50;3.83;;;;;10.90;100570.00;;;;9664684;30;20218;-77
2023/03/21 22:08:50;;;;;;;8.70;5.03;;;;;10.70;100573.00;;;;9670111;30;20203;-77
2023/03/21 22:13:52;;;;;;;10.17;4.23;;;;;10.60;100567.00;;;;9668532;30;20214;-77
2023/03/21 22:18:54;;;;;;;7.80;3.60;;;;;10.50;100571.00;;;;9692319;30;20211;-77
2023/03/21 22:23:56;;;;;;;11.07;4.00;;;;;10.40;100566.00;;;;9665077;30;20303;-77
2023/03/21 22:29:00;;;;;;;8.27;3.20;;;;;10.40;100566.00;;;;9693089;30;20219;-77
2023/03/21 22:34:02;;;;;;;7.80;2.80;;;;;10.40;100551.00;;;;9666663;30;20215;-77
2023/03/21 22:39:04;;;;;;;8.73;3.10;;;;;10.50;100547.00;;;;9663849;30;20214;-77
2023/03/21 22:44:06;;;;;;;11.10;2.67;;;;;10.60;100545.00;;;;9654142;30;20219;-77
2023/03/21 22:49:08;;;;;;;13.13;3.47;;;;;10.70;100536.00;;;;9661261;30;20211;-77
2023/03/21 22:54:10;;;;;;;9.27;3.10;;;;;10.80;100528.00;;;;9654994;30;20215;-77
2023/03/21 22:59:12;;;;;;;12.27;3.40;;;;;10.80;100528.00;;;;9663179;30;20207;-77
2023/03/21 23:04:15;;;;;;;5.63;3.23;;;;;10.80;100522.00;;;;9635496;30;20238;-77
2023/03/21 23:09:17;;;;;;;9.97;4.27;;;;;10.70;100509.00;;;;9628122;30;20224;-77
2023/03/21 23:14:19;;;;;;;10.77;4.00;;;;;10.50;100511.00;;;;9682740;30;20212;-77
2023/03/21 23:19:24;;;;;;;8.97;5.60;;;;;10.40;100502.00;;;;9676986;30;20200;-77
2023/03/21 23:24:26;;;;;;;15.13;7.10;;;;;10.40;100494.00;;;;9673277;30;20203;-76
2023/03/21 23:29:28;;;;;;;12.20;6.97;;;;;10.40;100494.00;;;;9676290;30;20220;-77
2023/03/21 23:34:30;;;;;;;11.77;7.47;;;;;10.40;100495.00;;;;9677099;30;20266;-77
2023/03/21 23:39:33;;;;;;;14.03;7.73;;;;;10.40;100495.00;;;;9663002;30;20216;-77
2023/03/21 23:44:35;;;;;;;17.17;8.37;;;;;10.30;100477.00;;;;9662781;30;20268;-77
2023/03/21 23:49:37;;;;;;;14.23;8.27;;;;;10.30;100485.00;;;;9656891;30;20272;-77
2023/03/21 23:54:39;;;;;;;10.50;7.33;;;;;10.30;100480.00;;;;9670135;30;20306;-77
2023/03/21 23:59:41;;;;;;;13.17;7.40;;;;;10.30;100464.00;;;;9644233;30;20200;-77
